sensor_id;sensor_type;location;lat;lon;timestamp;temperature;humidity
67101;DHT22;54019;61.746;16.106;2022-12-07T00:01:55;19.10;26.90
67101;DHT22;54019;61.746;16.106;2022-12-07T00:04:20;19.10;26.70
67101;DHT22;54019;61.746;16.106;2022-12-07T00:06:52;19.10;26.80
67101;DHT22;54019;61.746;16.106;2022-12-07T00:09:18;19.10;27.30
67101;DHT22;54019;61.746;16.106;2022-12-07T00:11:49;19.10;27.00
67101;DHT22;54019;61.746;16.106;2022-12-07T00:14:16;19.10;26.90
67101;DHT22;54019;61.746;16.106;2022-12-07T00:16:43;19.10;27.00
67101;DHT22;54019;61.746;16.106;2022-12-07T00:19:10;19.10;27.60
67101;DHT22;54019;61.746;16.106;2022-12-07T00:21:36;19.10;26.90
67101;DHT22;54019;61.746;16.106;2022-12-07T00:24:05;19.10;26.80
67101;DHT22;54019;61.746;16.106;2022-12-07T00:26:32;19.10;26.90
67101;DHT22;54019;61.746;16.106;2022-12-07T00:29:00;19.10;26.80
67101;DHT22;54019;61.746;16.106;2022-12-07T00:31:27;19.10;26.60
67101;DHT22;54019;61.746;16.106;2022-12-07T00:33:54;19.10;26.50
67101;DHT22;54019;61.746;16.106;2022-12-07T00:36:22;19.00;26.70
67101;DHT22;54019;61.746;16.106;2022-12-07T00:38:48;19.10;26.90
67101;DHT22;54019;61.746;16.106;2022-12-07T00:41:17;19.10;26.70
67101;DHT22;54019;61.746;16.106;2022-12-07T00:43:44;19.10;26.70
67101;DHT22;54019;61.746;16.106;2022-12-07T00:46:11;19.00;26.60
67101;DHT22;54019;61.746;16.106;2022-12-07T00:48:37;19.00;26.60
67101;DHT22;54019;61.746;16.106;2022-12-07T00:51:04;19.00;26.50
67101;DHT22;54019;61.746;16.106;2022-12-07T00:53:31;19.00;26.50
67101;DHT22;54019;61.746;16.106;2022-12-07T00:56:04;19.00;26.60
67101;DHT22;54019;61.746;16.106;2022-12-07T00:58:32;19.00;26.50
67101;DHT22;54019;61.746;16.106;2022-12-07T01:01:00;18.90;26.50
67101;DHT22;54019;61.746;16.106;2022-12-07T01:03:26;18.90;26.40
67101;DHT22;54019;61.746;16.106;2022-12-07T01:05:53;18.90;26.20
67101;DHT22;54019;61.746;16.106;2022-12-07T01:08:20;18.90;26.10
67101;DHT22;54019;61.746;16.106;2022-12-07T01:10:46;18.90;26.30
67101;DHT22;54019;61.746;16.106;2022-12-07T01:13:12;18.90;26.40
67101;DHT22;54019;61.746;16.106;2022-12-07T01:15:40;18.90;26.40
67101;DHT22;54019;61.746;16.106;2022-12-07T01:18:06;18.90;26.30
67101;DHT22;54019;61.746;16.106;2022-12-07T01:20:32;18.90;26.30
67101;DHT22;54019;61.746;16.106;2022-12-07T01:22:58;18.80;26.30
67101;DHT22;54019;61.746;16.106;2022-12-07T01:25:24;18.80;26.30
67101;DHT22;54019;61.746;16.106;2022-12-07T01:27:50;18.80;26.20
67101;DHT22;54019;61.746;16.106;2022-12-07T01:30:16;18.80;26.30
67101;DHT22;54019;61.746;16.106;2022-12-07T01:32:43;18.80;26.30
67101;DHT22;54019;61.746;16.106;2022-12-07T01:35:09;18.80;26.30
67101;DHT22;54019;61.746;16.106;2022-12-07T01:37:36;18.80;26.00
67101;DHT22;54019;61.746;16.106;2022-12-07T01:40:03;18.80;25.90
67101;DHT22;54019;61.746;16.106;2022-12-07T01:42:29;18.80;26.00
67101;DHT22;54019;61.746;16.106;2022-12-07T01:48:09;18.80;26.10
67101;DHT22;54019;61.746;16.106;2022-12-07T01:50:35;18.80;26.10
67101;DHT22;54019;61.746;16.106;2022-12-07T01:53:04;18.80;26.10
67101;DHT22;54019;61.746;16.106;2022-12-07T01:55:32;18.80;26.20
67101;DHT22;54019;61.746;16.106;2022-12-07T01:57:59;18.70;26.10
67101;DHT22;54019;61.746;16.106;2022-12-07T02:00:25;18.70;26.00
67101;DHT22;54019;61.746;16.106;2022-12-07T02:02:53;18.70;26.10
67101;DHT22;54019;61.746;16.106;2022-12-07T02:05:22;18.70;26.00
67101;DHT22;54019;61.746;16.106;2022-12-07T02:07:49;18.70;26.10
67101;DHT22;54019;61.746;16.106;2022-12-07T02:10:19;18.70;25.90
67101;DHT22;54019;61.746;16.106;2022-12-07T02:12:48;18.70;25.80
67101;DHT22;54019;61.746;16.106;2022-12-07T02:15:16;18.70;26.00
67101;DHT22;54019;61.746;16.106;2022-12-07T02:17:49;18.70;26.10
67101;DHT22;54019;61.746;16.106;2022-12-07T02:20:28;18.70;26.10
67101;DHT22;54019;61.746;16.106;2022-12-07T02:29:28;18.70;25.90
67101;DHT22;54019;61.746;16.106;2022-12-07T02:32:03;18.60;25.80
67101;DHT22;54019;61.746;16.106;2022-12-07T02:34:35;18.60;25.70
67101;DHT22;54019;61.746;16.106;2022-12-07T02:37:08;18.60;25.90
67101;DHT22;54019;61.746;16.106;2022-12-07T02:39:41;18.60;25.70
67101;DHT22;54019;61.746;16.106;2022-12-07T02:42:14;18.60;25.40
67101;DHT22;54019;61.746;16.106;2022-12-07T02:44:42;18.60;25.50
67101;DHT22;54019;61.746;16.106;2022-12-07T02:47:12;18.60;25.80
67101;DHT22;54019;61.746;16.106;2022-12-07T02:49:39;18.60;25.80
67101;DHT22;54019;61.746;16.106;2022-12-07T02:52:06;18.60;26.00
67101;DHT22;54019;61.746;16.106;2022-12-07T02:54:31;18.60;25.80
67101;DHT22;54019;61.746;16.106;2022-12-07T02:57:02;18.60;25.80
67101;DHT22;54019;61.746;16.106;2022-12-07T02:59:38;18.50;25.90
67101;DHT22;54019;61.746;16.106;2022-12-07T03:02:16;18.50;25.90
67101;DHT22;54019;61.746;16.106;2022-12-07T03:04:50;18.50;25.70
67101;DHT22;54019;61.746;16.106;2022-12-07T03:07:23;18.50;25.80
67101;DHT22;54019;61.746;16.106;2022-12-07T03:09:55;18.50;25.60
67101;DHT22;54019;61.746;16.106;2022-12-07T03:12:29;18.50;25.60
67101;DHT22;54019;61.746;16.106;2022-12-07T03:15:02;18.50;25.40
67101;DHT22;54019;61.746;16.106;2022-12-07T03:17:32;18.50;25.40
67101;DHT22;54019;61.746;16.106;2022-12-07T03:20:03;18.60;25.60
67101;DHT22;54019;61.746;16.106;2022-12-07T03:22:32;18.60;25.70
67101;DHT22;54019;61.746;16.106;2022-12-07T03:25:04;18.60;25.70
67101;DHT22;54019;61.746;16.106;2022-12-07T03:27:33;18.50;25.70
67101;DHT22;54019;61.746;16.106;2022-12-07T03:30:03;18.50;26.40
67101;DHT22;54019;61.746;16.106;2022-12-07T03:32:35;18.50;25.70
67101;DHT22;54019;61.746;16.106;2022-12-07T03:35:05;18.50;25.70
67101;DHT22;54019;61.746;16.106;2022-12-07T03:37:35;18.50;25.70
67101;DHT22;54019;61.746;16.106;2022-12-07T03:40:06;18.50;25.70
67101;DHT22;54019;61.746;16.106;2022-12-07T03:42:34;18.40;25.60
67101;DHT22;54019;61.746;16.106;2022-12-07T03:45:01;18.50;25.60
67101;DHT22;54019;61.746;16.106;2022-12-07T03:47:32;18.50;25.40
67101;DHT22;54019;61.746;16.106;2022-12-07T03:50:04;18.40;25.40
67101;DHT22;54019;61.746;16.106;2022-12-07T03:52:38;18.40;25.30
67101;DHT22;54019;61.746;16.106;2022-12-07T03:55:08;18.50;25.40
67101;DHT22;54019;61.746;16.106;2022-12-07T03:57:37;18.50;25.30
67101;DHT22;54019;61.746;16.106;2022-12-07T04:00:06;18.40;25.40
67101;DHT22;54019;61.746;16.106;2022-12-07T04:02:34;18.50;25.40
67101;DHT22;54019;61.746;16.106;2022-12-07T04:05:01;18.40;25.40
67101;DHT22;54019;61.746;16.106;2022-12-07T04:07:27;18.40;25.40
67101;DHT22;54019;61.746;16.106;2022-12-07T04:09:53;18.40;25.20
67101;DHT22;54019;61.746;16.106;2022-12-07T04:12:18;18.40;25.50
67101;DHT22;54019;61.746;16.106;2022-12-07T04:14:46;18.50;26.00
67101;DHT22;54019;61.746;16.106;2022-12-07T04:17:12;18.60;25.60
67101;DHT22;54019;61.746;16.106;2022-12-07T04:19:39;18.70;25.40
67101;DHT22;54019;61.746;16.106;2022-12-07T04:22:05;18.90;24.50
67101;DHT22;54019;61.746;16.106;2022-12-07T04:24:32;19.00;24.00
67101;DHT22;54019;61.746;16.106;2022-12-07T04:26:58;19.00;23.60
67101;DHT22;54019;61.746;16.106;2022-12-07T04:29:25;19.10;23.30
67101;DHT22;54019;61.746;16.106;2022-12-07T04:31:51;19.20;23.10
67101;DHT22;54019;61.746;16.106;2022-12-07T04:34:17;19.20;22.80
67101;DHT22;54019;61.746;16.106;2022-12-07T04:36:46;19.30;22.70
67101;DHT22;54019;61.746;16.106;2022-12-07T04:39:18;19.40;22.50
67101;DHT22;54019;61.746;16.106;2022-12-07T04:41:44;19.40;22.50
67101;DHT22;54019;61.746;16.106;2022-12-07T04:44:10;19.50;22.30
67101;DHT22;54019;61.746;16.106;2022-12-07T04:46:37;19.60;22.20
67101;DHT22;54019;61.746;16.106;2022-12-07T04:49:02;19.60;22.20
67101;DHT22;54019;61.746;16.106;2022-12-07T04:51:29;19.60;22.00
67101;DHT22;54019;61.746;16.106;2022-12-07T04:53:57;19.70;22.10
67101;DHT22;54019;61.746;16.106;2022-12-07T04:56:23;19.70;21.90
67101;DHT22;54019;61.746;16.106;2022-12-07T04:58:50;19.80;21.80
67101;DHT22;54019;61.746;16.106;2022-12-07T05:01:17;19.80;21.70
67101;DHT22;54019;61.746;16.106;2022-12-07T05:03:43;19.80;21.70
67101;DHT22;54019;61.746;16.106;2022-12-07T05:06:10;19.80;21.60
67101;DHT22;54019;61.746;16.106;2022-12-07T05:08:36;19.70;21.80
67101;DHT22;54019;61.746;16.106;2022-12-07T05:11:05;19.70;21.90
67101;DHT22;54019;61.746;16.106;2022-12-07T05:13:32;19.70;21.80
67101;DHT22;54019;61.746;16.106;2022-12-07T05:15:58;19.60;22.00
67101;DHT22;54019;61.746;16.106;2022-12-07T05:18:24;19.60;22.00
67101;DHT22;54019;61.746;16.106;2022-12-07T05:20:50;19.70;22.40
67101;DHT22;54019;61.746;16.106;2022-12-07T05:23:16;19.60;22.00
67101;DHT22;54019;61.746;16.106;2022-12-07T05:25:41;19.70;22.20
67101;DHT22;54019;61.746;16.106;2022-12-07T05:28:12;19.70;22.60
67101;DHT22;54019;61.746;16.106;2022-12-07T05:30:38;19.80;22.70
67101;DHT22;54019;61.746;16.106;2022-12-07T05:33:04;19.80;22.50
67101;DHT22;54019;61.746;16.106;2022-12-07T05:35:30;19.90;22.00
67101;DHT22;54019;61.746;16.106;2022-12-07T05:37:56;19.80;21.80
67101;DHT22;54019;61.746;16.106;2022-12-07T05:40:22;19.80;21.90
67101;DHT22;54019;61.746;16.106;2022-12-07T05:42:47;19.90;21.90
67101;DHT22;54019;61.746;16.106;2022-12-07T05:45:15;20.00;21.60
67101;DHT22;54019;61.746;16.106;2022-12-07T05:47:41;20.00;21.40
67101;DHT22;54019;61.746;16.106;2022-12-07T05:50:07;20.10;21.40
67101;DHT22;54019;61.746;16.106;2022-12-07T05:52:33;20.10;21.20
67101;DHT22;54019;61.746;16.106;2022-12-07T05:54:59;20.10;21.20
67101;DHT22;54019;61.746;16.106;2022-12-07T05:57:24;20.20;21.00
67101;DHT22;54019;61.746;16.106;2022-12-07T05:59:50;20.20;21.20
67101;DHT22;54019;61.746;16.106;2022-12-07T06:02:18;20.20;21.20
67101;DHT22;54019;61.746;16.106;2022-12-07T06:04:45;20.20;21.00
67101;DHT22;54019;61.746;16.106;2022-12-07T06:07:13;20.20;21.60
67101;DHT22;54019;61.746;16.106;2022-12-07T06:09:39;20.10;21.90
67101;DHT22;54019;61.746;16.106;2022-12-07T06:12:05;20.00;22.10
67101;DHT22;54019;61.746;16.106;2022-12-07T06:14:31;20.00;22.50
67101;DHT22;54019;61.746;16.106;2022-12-07T06:16:58;20.10;22.60
67101;DHT22;54019;61.746;16.106;2022-12-07T06:19:25;20.10;22.20
67101;DHT22;54019;61.746;16.106;2022-12-07T06:21:51;20.00;22.20
67101;DHT22;54019;61.746;16.106;2022-12-07T06:24:18;20.10;22.10
67101;DHT22;54019;61.746;16.106;2022-12-07T06:26:44;20.10;21.90
67101;DHT22;54019;61.746;16.106;2022-12-07T06:29:11;20.00;21.10
67101;DHT22;54019;61.746;16.106;2022-12-07T06:31:37;20.00;20.90
67101;DHT22;54019;61.746;16.106;2022-12-07T06:34:05;20.00;20.50
67101;DHT22;54019;61.746;16.106;2022-12-07T06:36:33;20.10;20.50
67101;DHT22;54019;61.746;16.106;2022-12-07T06:38:58;20.20;20.30
67101;DHT22;54019;61.746;16.106;2022-12-07T06:41:24;20.20;20.10
67101;DHT22;54019;61.746;16.106;2022-12-07T06:43:50;20.20;20.10
67101;DHT22;54019;61.746;16.106;2022-12-07T06:46:16;20.20;20.10
67101;DHT22;54019;61.746;16.106;2022-12-07T06:48:43;20.20;20.00
67101;DHT22;54019;61.746;16.106;2022-12-07T06:51:09;20.30;20.00
67101;DHT22;54019;61.746;16.106;2022-12-07T06:53:37;20.30;19.90
67101;DHT22;54019;61.746;16.106;2022-12-07T06:56:03;20.30;19.90
67101;DHT22;54019;61.746;16.106;2022-12-07T06:58:29;20.30;19.80
67101;DHT22;54019;61.746;16.106;2022-12-07T07:00:55;20.30;19.80
67101;DHT22;54019;61.746;16.106;2022-12-07T07:03:21;20.30;19.70
67101;DHT22;54019;61.746;16.106;2022-12-07T07:05:47;20.20;19.80
67101;DHT22;54019;61.746;16.106;2022-12-07T07:08:13;20.20;19.80
67101;DHT22;54019;61.746;16.106;2022-12-07T07:10:41;20.10;19.90
67101;DHT22;54019;61.746;16.106;2022-12-07T07:13:07;20.00;19.90
67101;DHT22;54019;61.746;16.106;2022-12-07T07:15:34;20.00;19.90
67101;DHT22;54019;61.746;16.106;2022-12-07T07:18:00;20.00;20.00
67101;DHT22;54019;61.746;16.106;2022-12-07T07:20:26;20.00;20.00
67101;DHT22;54019;61.746;16.106;2022-12-07T07:22:54;20.00;20.00
67101;DHT22;54019;61.746;16.106;2022-12-07T07:25:20;20.00;20.00
67101;DHT22;54019;61.746;16.106;2022-12-07T07:27:47;20.00;20.00
67101;DHT22;54019;61.746;16.106;2022-12-07T07:30:13;20.00;20.30
67101;DHT22;54019;61.746;16.106;2022-12-07T07:32:39;20.10;19.70
67101;DHT22;54019;61.746;16.106;2022-12-07T07:35:06;20.10;19.70
67101;DHT22;54019;61.746;16.106;2022-12-07T07:37:31;20.10;19.60
67101;DHT22;54019;61.746;16.106;2022-12-07T07:39:57;20.10;19.60
67101;DHT22;54019;61.746;16.106;2022-12-07T07:42:23;20.10;19.50
67101;DHT22;54019;61.746;16.106;2022-12-07T07:44:50;20.10;19.50
67101;DHT22;54019;61.746;16.106;2022-12-07T07:47:16;20.10;19.50
67101;DHT22;54019;61.746;16.106;2022-12-07T07:49:42;20.20;19.40
67101;DHT22;54019;61.746;16.106;2022-12-07T07:52:08;20.20;19.40
67101;DHT22;54019;61.746;16.106;2022-12-07T07:54:33;20.20;19.30
67101;DHT22;54019;61.746;16.106;2022-12-07T07:56:59;20.10;19.20
67101;DHT22;54019;61.746;16.106;2022-12-07T07:59:25;20.20;19.20
67101;DHT22;54019;61.746;16.106;2022-12-07T08:01:52;20.20;19.10
67101;DHT22;54019;61.746;16.106;2022-12-07T08:04:18;20.20;19.10
67101;DHT22;54019;61.746;16.106;2022-12-07T08:06:44;20.20;19.20
67101;DHT22;54019;61.746;16.106;2022-12-07T08:09:10;20.20;19.10
67101;DHT22;54019;61.746;16.106;2022-12-07T08:11:35;20.20;19.20
67101;DHT22;54019;61.746;16.106;2022-12-07T08:14:01;20.10;19.30
67101;DHT22;54019;61.746;16.106;2022-12-07T08:16:27;20.10;19.30
67101;DHT22;54019;61.746;16.106;2022-12-07T08:18:54;20.10;19.40
67101;DHT22;54019;61.746;16.106;2022-12-07T08:21:20;20.00;19.50
67101;DHT22;54019;61.746;16.106;2022-12-07T08:23:46;20.00;19.70
67101;DHT22;54019;61.746;16.106;2022-12-07T08:26:14;20.10;19.80
67101;DHT22;54019;61.746;16.106;2022-12-07T08:28:40;20.10;19.70
67101;DHT22;54019;61.746;16.106;2022-12-07T08:31:08;20.10;19.80
67101;DHT22;54019;61.746;16.106;2022-12-07T08:33:34;20.20;19.80
67101;DHT22;54019;61.746;16.106;2022-12-07T08:36:02;20.20;19.70
67101;DHT22;54019;61.746;16.106;2022-12-07T08:38:28;20.20;19.60
67101;DHT22;54019;61.746;16.106;2022-12-07T08:40:54;20.20;19.60
67101;DHT22;54019;61.746;16.106;2022-12-07T08:43:20;20.40;19.60
67101;DHT22;54019;61.746;16.106;2022-12-07T08:45:47;20.40;19.50
67101;DHT22;54019;61.746;16.106;2022-12-07T08:48:13;20.40;19.50
67101;DHT22;54019;61.746;16.106;2022-12-07T08:50:39;20.40;19.50
67101;DHT22;54019;61.746;16.106;2022-12-07T08:53:07;20.40;19.30
67101;DHT22;54019;61.746;16.106;2022-12-07T08:55:33;20.40;19.20
67101;DHT22;54019;61.746;16.106;2022-12-07T08:58:00;20.40;19.10
67101;DHT22;54019;61.746;16.106;2022-12-07T09:00:27;20.40;19.40
67101;DHT22;54019;61.746;16.106;2022-12-07T09:02:53;20.40;19.50
67101;DHT22;54019;61.746;16.106;2022-12-07T09:05:19;20.50;19.40
67101;DHT22;54019;61.746;16.106;2022-12-07T09:07:48;20.40;19.30
67101;DHT22;54019;61.746;16.106;2022-12-07T09:10:17;20.40;19.30
67101;DHT22;54019;61.746;16.106;2022-12-07T09:12:43;20.40;19.40
67101;DHT22;54019;61.746;16.106;2022-12-07T09:15:09;20.30;19.70
67101;DHT22;54019;61.746;16.106;2022-12-07T09:17:35;20.30;19.70
67101;DHT22;54019;61.746;16.106;2022-12-07T09:20:01;20.30;19.60
67101;DHT22;54019;61.746;16.106;2022-12-07T09:22:29;20.30;19.60
67101;DHT22;54019;61.746;16.106;2022-12-07T09:24:54;20.30;19.60
67101;DHT22;54019;61.746;16.106;2022-12-07T09:27:22;20.30;19.40
67101;DHT22;54019;61.746;16.106;2022-12-07T09:29:47;20.30;19.40
67101;DHT22;54019;61.746;16.106;2022-12-07T09:32:13;20.40;19.30
67101;DHT22;54019;61.746;16.106;2022-12-07T09:34:39;20.30;19.30
67101;DHT22;54019;61.746;16.106;2022-12-07T09:37:05;20.40;19.30
67101;DHT22;54019;61.746;16.106;2022-12-07T09:39:31;20.40;19.20
67101;DHT22;54019;61.746;16.106;2022-12-07T09:41:57;20.40;19.10
67101;DHT22;54019;61.746;16.106;2022-12-07T09:44:26;20.40;18.90
67101;DHT22;54019;61.746;16.106;2022-12-07T09:46:52;20.50;18.80
67101;DHT22;54019;61.746;16.106;2022-12-07T09:49:20;20.50;18.60
67101;DHT22;54019;61.746;16.106;2022-12-07T09:51:47;20.50;18.60
67101;DHT22;54019;61.746;16.106;2022-12-07T09:54:14;20.60;18.60
67101;DHT22;54019;61.746;16.106;2022-12-07T09:56:40;20.60;18.70
67101;DHT22;54019;61.746;16.106;2022-12-07T09:59:12;20.70;18.70
67101;DHT22;54019;61.746;16.106;2022-12-07T10:01:46;20.80;18.90
67101;DHT22;54019;61.746;16.106;2022-12-07T10:04:16;20.80;18.90
67101;DHT22;54019;61.746;16.106;2022-12-07T10:06:42;20.90;18.90
67101;DHT22;54019;61.746;16.106;2022-12-07T10:09:12;20.90;18.90
67101;DHT22;54019;61.746;16.106;2022-12-07T10:11:57;20.80;18.90
67101;DHT22;54019;61.746;16.106;2022-12-07T10:14:23;20.70;19.00
67101;DHT22;54019;61.746;16.106;2022-12-07T10:16:50;20.80;19.10
67101;DHT22;54019;61.746;16.106;2022-12-07T10:19:24;20.70;19.20
67101;DHT22;54019;61.746;16.106;2022-12-07T10:22:15;20.70;19.20
67101;DHT22;54019;61.746;16.106;2022-12-07T10:24:42;20.60;19.20
67101;DHT22;54019;61.746;16.106;2022-12-07T10:27:18;20.60;19.70
67101;DHT22;54019;61.746;16.106;2022-12-07T10:29:48;20.50;19.30
67101;DHT22;54019;61.746;16.106;2022-12-07T10:32:29;20.50;19.40
67101;DHT22;54019;61.746;16.106;2022-12-07T10:35:19;20.50;19.60
67101;DHT22;54019;61.746;16.106;2022-12-07T10:37:45;20.60;19.30
67101;DHT22;54019;61.746;16.106;2022-12-07T10:40:31;20.60;19.10
67101;DHT22;54019;61.746;16.106;2022-12-07T10:43:05;20.60;18.90
67101;DHT22;54019;61.746;16.106;2022-12-07T10:45:32;20.60;19.00
67101;DHT22;54019;61.746;16.106;2022-12-07T10:48:04;20.70;19.00
67101;DHT22;54019;61.746;16.106;2022-12-07T10:50:46;20.80;19.00
67101;DHT22;54019;61.746;16.106;2022-12-07T10:53:34;20.80;19.00
67101;DHT22;54019;61.746;16.106;2022-12-07T10:56:19;20.90;19.50
67101;DHT22;54019;61.746;16.106;2022-12-07T10:58:59;20.90;19.00
67101;DHT22;54019;61.746;16.106;2022-12-07T11:01:33;21.00;18.90
67101;DHT22;54019;61.746;16.106;2022-12-07T11:04:18;21.00;19.00
67101;DHT22;54019;61.746;16.106;2022-12-07T11:06:52;21.10;19.00
67101;DHT22;54019;61.746;16.106;2022-12-07T11:09:44;21.00;18.90
67101;DHT22;54019;61.746;16.106;2022-12-07T11:12:18;21.00;18.90
67101;DHT22;54019;61.746;16.106;2022-12-07T11:14:54;21.00;18.90
67101;DHT22;54019;61.746;16.106;2022-12-07T11:17:28;21.00;19.10
67101;DHT22;54019;61.746;16.106;2022-12-07T11:20:11;21.00;19.30
67101;DHT22;54019;61.746;16.106;2022-12-07T11:22:47;20.90;19.20
67101;DHT22;54019;61.746;16.106;2022-12-07T11:25:23;20.80;19.60
67101;DHT22;54019;61.746;16.106;2022-12-07T11:28:03;20.70;19.20
67101;DHT22;54019;61.746;16.106;2022-12-07T11:30:35;20.70;19.10
67101;DHT22;54019;61.746;16.106;2022-12-07T11:33:13;20.70;19.20
67101;DHT22;54019;61.746;16.106;2022-12-07T11:35:54;20.70;19.40
67101;DHT22;54019;61.746;16.106;2022-12-07T11:38:27;20.70;19.50
67101;DHT22;54019;61.746;16.106;2022-12-07T11:40:58;20.80;19.90
67101;DHT22;54019;61.746;16.106;2022-12-07T11:43:27;20.80;20.00
67101;DHT22;54019;61.746;16.106;2022-12-07T11:45:58;20.80;19.70
67101;DHT22;54019;61.746;16.106;2022-12-07T11:48:30;20.90;19.70
67101;DHT22;54019;61.746;16.106;2022-12-07T11:51:01;20.90;19.90
67101;DHT22;54019;61.746;16.106;2022-12-07T11:53:32;20.90;20.10
67101;DHT22;54019;61.746;16.106;2022-12-07T11:56:03;21.00;19.60
67101;DHT22;54019;61.746;16.106;2022-12-07T11:58:48;21.10;19.70
67101;DHT22;54019;61.746;16.106;2022-12-07T12:01:35;21.10;20.00
67101;DHT22;54019;61.746;16.106;2022-12-07T12:04:15;21.10;20.20
67101;DHT22;54019;61.746;16.106;2022-12-07T12:06:45;21.20;19.90
67101;DHT22;54019;61.746;16.106;2022-12-07T12:09:13;21.20;19.40
67101;DHT22;54019;61.746;16.106;2022-12-07T12:14:43;21.20;19.20
67101;DHT22;54019;61.746;16.106;2022-12-07T12:20:23;21.10;19.30
67101;DHT22;54019;61.746;16.106;2022-12-07T12:22:54;21.00;19.10
67101;DHT22;54019;61.746;16.106;2022-12-07T12:25:24;20.90;19.60
67101;DHT22;54019;61.746;16.106;2022-12-07T12:27:52;20.90;19.50
67101;DHT22;54019;61.746;16.106;2022-12-07T12:30:31;20.80;19.60
67101;DHT22;54019;61.746;16.106;2022-12-07T12:33:06;20.80;19.40
67101;DHT22;54019;61.746;16.106;2022-12-07T12:35:37;20.90;19.30
67101;DHT22;54019;61.746;16.106;2022-12-07T12:38:33;20.80;19.10
67101;DHT22;54019;61.746;16.106;2022-12-07T12:41:00;20.90;19.50
67101;DHT22;54019;61.746;16.106;2022-12-07T12:43:56;20.90;19.40
67101;DHT22;54019;61.746;16.106;2022-12-07T12:52:58;21.00;19.10
67101;DHT22;54019;61.746;16.106;2022-12-07T12:58:40;21.10;19.10
67101;DHT22;54019;61.746;16.106;2022-12-07T13:01:37;21.10;19.10
67101;DHT22;54019;61.746;16.106;2022-12-07T13:04:27;21.10;18.90
67101;DHT22;54019;61.746;16.106;2022-12-07T13:06:53;21.10;19.10
67101;DHT22;54019;61.746;16.106;2022-12-07T13:09:22;21.10;18.80
67101;DHT22;54019;61.746;16.106;2022-12-07T13:11:49;21.10;18.90
67101;DHT22;54019;61.746;16.106;2022-12-07T13:14:55;21.00;18.60
67101;DHT22;54019;61.746;16.106;2022-12-07T13:17:57;20.90;18.60
67101;DHT22;54019;61.746;16.106;2022-12-07T13:20:45;20.70;18.70
67101;DHT22;54019;61.746;16.106;2022-12-07T13:23:12;20.60;18.50
67101;DHT22;54019;61.746;16.106;2022-12-07T13:25:46;20.50;18.80
67101;DHT22;54019;61.746;16.106;2022-12-07T13:28:17;20.60;18.90
67101;DHT22;54019;61.746;16.106;2022-12-07T13:31:00;20.60;18.90
67101;DHT22;54019;61.746;16.106;2022-12-07T13:33:29;20.60;18.90
67101;DHT22;54019;61.746;16.106;2022-12-07T13:35:56;20.60;19.10
67101;DHT22;54019;61.746;16.106;2022-12-07T13:38:28;20.60;19.80
67101;DHT22;54019;61.746;16.106;2022-12-07T13:41:12;20.70;19.50
67101;DHT22;54019;61.746;16.106;2022-12-07T13:43:42;20.80;19.20
67101;DHT22;54019;61.746;16.106;2022-12-07T13:46:11;20.80;19.40
67101;DHT22;54019;61.746;16.106;2022-12-07T13:48:44;20.80;19.20
67101;DHT22;54019;61.746;16.106;2022-12-07T13:51:17;20.80;19.00
67101;DHT22;54019;61.746;16.106;2022-12-07T13:53:47;20.90;19.00
67101;DHT22;54019;61.746;16.106;2022-12-07T13:56:14;20.90;19.10
67101;DHT22;54019;61.746;16.106;2022-12-07T13:58:40;20.90;19.20
67101;DHT22;54019;61.746;16.106;2022-12-07T14:01:06;20.90;19.30
67101;DHT22;54019;61.746;16.106;2022-12-07T14:03:35;20.90;19.00
67101;DHT22;54019;61.746;16.106;2022-12-07T14:06:19;20.90;19.20
67101;DHT22;54019;61.746;16.106;2022-12-07T14:08:45;20.90;19.50
67101;DHT22;54019;61.746;16.106;2022-12-07T14:11:15;20.80;20.00
67101;DHT22;54019;61.746;16.106;2022-12-07T14:13:54;20.80;20.00
67101;DHT22;54019;61.746;16.106;2022-12-07T14:16:25;20.70;19.70
67101;DHT22;54019;61.746;16.106;2022-12-07T14:18:52;20.70;19.60
67101;DHT22;54019;61.746;16.106;2022-12-07T14:21:20;20.60;19.40
67101;DHT22;54019;61.746;16.106;2022-12-07T14:24:09;20.60;19.30
67101;DHT22;54019;61.746;16.106;2022-12-07T14:26:36;20.50;19.20
67101;DHT22;54019;61.746;16.106;2022-12-07T14:29:30;20.50;19.50
67101;DHT22;54019;61.746;16.106;2022-12-07T14:31:57;20.40;19.30
67101;DHT22;54019;61.746;16.106;2022-12-07T14:34:25;20.40;19.30
67101;DHT22;54019;61.746;16.106;2022-12-07T14:36:51;20.50;19.10
67101;DHT22;54019;61.746;16.106;2022-12-07T14:39:17;20.50;18.80
67101;DHT22;54019;61.746;16.106;2022-12-07T14:41:43;20.50;18.70
67101;DHT22;54019;61.746;16.106;2022-12-07T14:44:10;20.50;18.70
67101;DHT22;54019;61.746;16.106;2022-12-07T14:46:36;20.60;18.90
67101;DHT22;54019;61.746;16.106;2022-12-07T14:49:02;20.50;19.50
67101;DHT22;54019;61.746;16.106;2022-12-07T14:51:29;20.60;19.40
67101;DHT22;54019;61.746;16.106;2022-12-07T14:53:55;20.60;19.30
67101;DHT22;54019;61.746;16.106;2022-12-07T14:56:21;20.70;19.70
67101;DHT22;54019;61.746;16.106;2022-12-07T14:58:47;20.80;19.80
67101;DHT22;54019;61.746;16.106;2022-12-07T15:01:13;20.80;19.70
67101;DHT22;54019;61.746;16.106;2022-12-07T15:03:38;20.80;19.60
67101;DHT22;54019;61.746;16.106;2022-12-07T15:06:05;20.70;20.10
67101;DHT22;54019;61.746;16.106;2022-12-07T15:08:33;20.60;20.00
67101;DHT22;54019;61.746;16.106;2022-12-07T15:10:59;20.60;20.00
67101;DHT22;54019;61.746;16.106;2022-12-07T15:13:25;20.50;20.00
67101;DHT22;54019;61.746;16.106;2022-12-07T15:15:53;20.50;20.00
67101;DHT22;54019;61.746;16.106;2022-12-07T15:18:20;20.50;19.90
67101;DHT22;54019;61.746;16.106;2022-12-07T15:20:47;20.40;19.90
67101;DHT22;54019;61.746;16.106;2022-12-07T15:23:13;20.50;19.80
67101;DHT22;54019;61.746;16.106;2022-12-07T15:25:42;20.50;19.30
67101;DHT22;54019;61.746;16.106;2022-12-07T15:28:08;20.40;19.20
67101;DHT22;54019;61.746;16.106;2022-12-07T15:30:36;20.40;19.50
67101;DHT22;54019;61.746;16.106;2022-12-07T15:33:02;20.40;19.30
67101;DHT22;54019;61.746;16.106;2022-12-07T15:35:28;20.50;19.50
67101;DHT22;54019;61.746;16.106;2022-12-07T15:37:53;20.50;19.40
67101;DHT22;54019;61.746;16.106;2022-12-07T15:40:19;20.40;19.10
67101;DHT22;54019;61.746;16.106;2022-12-07T15:42:46;20.50;19.10
67101;DHT22;54019;61.746;16.106;2022-12-07T15:45:12;20.50;19.10
67101;DHT22;54019;61.746;16.106;2022-12-07T15:47:39;20.50;19.40
67101;DHT22;54019;61.746;16.106;2022-12-07T15:50:07;20.50;19.30
67101;DHT22;54019;61.746;16.106;2022-12-07T15:52:34;20.60;19.20
67101;DHT22;54019;61.746;16.106;2022-12-07T15:55:00;20.70;19.00